sensor_id;sensor_type;location;lat;lon;timestamp;temperature;humidity
59556;DHT22;45374;52.746;6.304;2022-12-01T00:01:59;5.50;99.90
59556;DHT22;45374;52.746;6.304;2022-12-01T00:04:24;5.40;99.90
59556;DHT22;45374;52.746;6.304;2022-12-01T00:06:50;5.50;99.90
59556;DHT22;45374;52.746;6.304;2022-12-01T00:09:15;5.40;99.90
59556;DHT22;45374;52.746;6.304;2022-12-01T00:11:59;5.40;99.90
59556;DHT22;45374;52.746;6.304;2022-12-01T00:14:25;5.40;99.90
59556;DHT22;45374;52.746;6.304;2022-12-01T00:16:50;5.50;99.90
59556;DHT22;45374;52.746;6.304;2022-12-01T00:19:16;5.40;99.90
59556;DHT22;45374;52.746;6.304;2022-12-01T00:21:42;5.50;99.90
59556;DHT22;45374;52.746;6.304;2022-12-01T00:24:08;5.40;99.90
59556;DHT22;45374;52.746;6.304;2022-12-01T00:26:34;5.50;99.90
59556;DHT22;45374;52.746;6.304;2022-12-01T00:29:01;5.50;99.90
59556;DHT22;45374;52.746;6.304;2022-12-01T00:31:26;5.50;99.90
59556;DHT22;45374;52.746;6.304;2022-12-01T00:33:52;5.50;99.90
59556;DHT22;45374;52.746;6.304;2022-12-01T00:36:17;5.40;99.90
59556;DHT22;45374;52.746;6.304;2022-12-01T00:38:43;5.50;99.90
59556;DHT22;45374;52.746;6.304;2022-12-01T00:41:08;5.50;99.90
59556;DHT22;45374;52.746;6.304;2022-12-01T00:43:34;5.50;99.90
59556;DHT22;45374;52.746;6.304;2022-12-01T00:45:59;5.50;99.90
59556;DHT22;45374;52.746;6.304;2022-12-01T00:48:25;5.50;99.90
59556;DHT22;45374;52.746;6.304;2022-12-01T00:50:50;5.50;99.90
59556;DHT22;45374;52.746;6.304;2022-12-01T00:53:16;5.40;99.90
59556;DHT22;45374;52.746;6.304;2022-12-01T00:55:42;5.50;99.90
59556;DHT22;45374;52.746;6.304;2022-12-01T00:58:07;5.40;99.90
59556;DHT22;45374;52.746;6.304;2022-12-01T01:00:33;5.40;99.90
59556;DHT22;45374;52.746;6.304;2022-12-01T01:02:58;5.50;99.90
59556;DHT22;45374;52.746;6.304;2022-12-01T01:05:24;5.50;99.90
59556;DHT22;45374;52.746;6.304;2022-12-01T01:07:49;5.50;99.90
59556;DHT22;45374;52.746;6.304;2022-12-01T01:10:15;5.50;99.90
59556;DHT22;45374;52.746;6.304;2022-12-01T01:12:40;5.40;99.90
59556;DHT22;45374;52.746;6.304;2022-12-01T01:15:06;5.40;99.90
59556;DHT22;45374;52.746;6.304;2022-12-01T01:17:32;5.50;99.90
59556;DHT22;45374;52.746;6.304;2022-12-01T01:19:57;5.50;99.90
59556;DHT22;45374;52.746;6.304;2022-12-01T01:22:23;5.40;99.90
59556;DHT22;45374;52.746;6.304;2022-12-01T01:24:48;5.40;99.90
59556;DHT22;45374;52.746;6.304;2022-12-01T01:27:14;5.50;99.90
59556;DHT22;45374;52.746;6.304;2022-12-01T01:29:39;5.50;99.90
59556;DHT22;45374;52.746;6.304;2022-12-01T01:32:05;5.40;99.90
59556;DHT22;45374;52.746;6.304;2022-12-01T01:34:30;5.50;99.90
59556;DHT22;45374;52.746;6.304;2022-12-01T01:36:55;5.50;99.90
59556;DHT22;45374;52.746;6.304;2022-12-01T01:39:21;5.40;99.90
59556;DHT22;45374;52.746;6.304;2022-12-01T01:41:46;5.40;99.90
59556;DHT22;45374;52.746;6.304;2022-12-01T01:46:56;5.40;99.90
59556;DHT22;45374;52.746;6.304;2022-12-01T01:49:22;5.50;99.90
59556;DHT22;45374;52.746;6.304;2022-12-01T01:51:49;5.40;99.90
59556;DHT22;45374;52.746;6.304;2022-12-01T01:56:41;5.40;99.90
59556;DHT22;45374;52.746;6.304;2022-12-01T01:59:06;5.50;99.90
59556;DHT22;45374;52.746;6.304;2022-12-01T02:01:32;5.40;99.90
59556;DHT22;45374;52.746;6.304;2022-12-01T02:03:57;5.40;99.90
59556;DHT22;45374;52.746;6.304;2022-12-01T02:06:23;5.50;99.90
59556;DHT22;45374;52.746;6.304;2022-12-01T02:08:49;5.40;99.90
59556;DHT22;45374;52.746;6.304;2022-12-01T02:14:08;5.50;99.90
59556;DHT22;45374;52.746;6.304;2022-12-01T02:19:40;5.40;99.90
59556;DHT22;45374;52.746;6.304;2022-12-01T02:30:04;5.40;99.90
59556;DHT22;45374;52.746;6.304;2022-12-01T02:32:33;5.40;99.90
59556;DHT22;45374;52.746;6.304;2022-12-01T02:35:03;5.40;99.90
59556;DHT22;45374;52.746;6.304;2022-12-01T02:42:46;5.40;99.90
59556;DHT22;45374;52.746;6.304;2022-12-01T02:45:16;5.50;99.90
59556;DHT22;45374;52.746;6.304;2022-12-01T02:47:42;5.40;99.90
59556;DHT22;45374;52.746;6.304;2022-12-01T02:50:09;5.40;99.90
59556;DHT22;45374;52.746;6.304;2022-12-01T02:52:35;5.30;99.90
59556;DHT22;45374;52.746;6.304;2022-12-01T02:55:01;5.40;99.90
59556;DHT22;45374;52.746;6.304;2022-12-01T02:57:27;5.40;99.90
59556;DHT22;45374;52.746;6.304;2022-12-01T02:59:54;5.30;99.90
59556;DHT22;45374;52.746;6.304;2022-12-01T03:05:55;5.40;99.90
59556;DHT22;45374;52.746;6.304;2022-12-01T03:10:51;5.40;99.90
59556;DHT22;45374;52.746;6.304;2022-12-01T03:18:47;5.40;99.90
59556;DHT22;45374;52.746;6.304;2022-12-01T03:23:57;5.30;99.90
59556;DHT22;45374;52.746;6.304;2022-12-01T03:26:24;5.40;99.90
59556;DHT22;45374;52.746;6.304;2022-12-01T03:28:54;5.40;99.90
59556;DHT22;45374;52.746;6.304;2022-12-01T03:31:22;5.40;99.90
59556;DHT22;45374;52.746;6.304;2022-12-01T03:33:54;5.40;99.90
59556;DHT22;45374;52.746;6.304;2022-12-01T03:36:24;5.40;99.90
59556;DHT22;45374;52.746;6.304;2022-12-01T03:38:53;5.40;99.90
59556;DHT22;45374;52.746;6.304;2022-12-01T03:41:21;5.40;99.90
59556;DHT22;45374;52.746;6.304;2022-12-01T03:43:50;5.40;99.90
59556;DHT22;45374;52.746;6.304;2022-12-01T03:46:28;5.30;99.90
59556;DHT22;45374;52.746;6.304;2022-12-01T03:48:57;5.40;99.90
59556;DHT22;45374;52.746;6.304;2022-12-01T03:51:28;5.40;99.90
59556;DHT22;45374;52.746;6.304;2022-12-01T03:54:04;5.40;99.90
59556;DHT22;45374;52.746;6.304;2022-12-01T03:59:29;5.40;99.90
59556;DHT22;45374;52.746;6.304;2022-12-01T04:01:56;5.40;99.90
59556;DHT22;45374;52.746;6.304;2022-12-01T04:04:21;5.40;99.90
59556;DHT22;45374;52.746;6.304;2022-12-01T04:06:47;5.30;99.90
59556;DHT22;45374;52.746;6.304;2022-12-01T04:09:14;5.40;99.90
59556;DHT22;45374;52.746;6.304;2022-12-01T04:11:40;5.40;99.90
59556;DHT22;45374;52.746;6.304;2022-12-01T04:14:24;5.30;99.90
59556;DHT22;45374;52.746;6.304;2022-12-01T04:16:49;5.20;99.90
59556;DHT22;45374;52.746;6.304;2022-12-01T04:19:15;5.30;99.90
59556;DHT22;45374;52.746;6.304;2022-12-01T04:21:40;5.30;99.90
59556;DHT22;45374;52.746;6.304;2022-12-01T04:24:06;5.20;99.90
59556;DHT22;45374;52.746;6.304;2022-12-01T04:26:32;5.30;99.90
59556;DHT22;45374;52.746;6.304;2022-12-01T04:29:02;5.30;99.90
59556;DHT22;45374;52.746;6.304;2022-12-01T04:31:28;5.20;99.90
59556;DHT22;45374;52.746;6.304;2022-12-01T04:33:54;5.30;99.90
59556;DHT22;45374;52.746;6.304;2022-12-01T04:36:21;5.30;99.90
59556;DHT22;45374;52.746;6.304;2022-12-01T04:38:46;5.30;99.90
59556;DHT22;45374;52.746;6.304;2022-12-01T04:41:12;5.30;99.90
59556;DHT22;45374;52.746;6.304;2022-12-01T04:43:38;5.20;99.90
59556;DHT22;45374;52.746;6.304;2022-12-01T04:46:04;5.30;99.90
59556;DHT22;45374;52.746;6.304;2022-12-01T04:48:30;5.20;99.90
59556;DHT22;45374;52.746;6.304;2022-12-01T04:50:55;5.20;99.90
59556;DHT22;45374;52.746;6.304;2022-12-01T04:53:21;5.20;99.90
59556;DHT22;45374;52.746;6.304;2022-12-01T04:55:46;5.10;99.90
59556;DHT22;45374;52.746;6.304;2022-12-01T04:58:12;5.10;99.90
59556;DHT22;45374;52.746;6.304;2022-12-01T05:00:37;5.10;99.90
59556;DHT22;45374;52.746;6.304;2022-12-01T05:03:03;5.00;99.90
59556;DHT22;45374;52.746;6.304;2022-12-01T05:05:28;5.10;99.90
59556;DHT22;45374;52.746;6.304;2022-12-01T05:07:54;5.00;99.90
59556;DHT22;45374;52.746;6.304;2022-12-01T05:10:20;5.00;99.90
59556;DHT22;45374;52.746;6.304;2022-12-01T05:12:45;5.10;99.90
59556;DHT22;45374;52.746;6.304;2022-12-01T05:15:11;5.10;99.90
59556;DHT22;45374;52.746;6.304;2022-12-01T05:17:37;5.10;99.90
59556;DHT22;45374;52.746;6.304;2022-12-01T05:20:02;5.20;99.90
59556;DHT22;45374;52.746;6.304;2022-12-01T05:22:46;5.10;99.90
59556;DHT22;45374;52.746;6.304;2022-12-01T05:25:12;5.10;99.90
59556;DHT22;45374;52.746;6.304;2022-12-01T05:27:37;5.10;99.90
59556;DHT22;45374;52.746;6.304;2022-12-01T05:30:03;5.10;99.90
59556;DHT22;45374;52.746;6.304;2022-12-01T05:32:29;5.20;99.90
59556;DHT22;45374;52.746;6.304;2022-12-01T05:34:54;5.10;99.90
59556;DHT22;45374;52.746;6.304;2022-12-01T05:37:20;5.20;99.90
59556;DHT22;45374;52.746;6.304;2022-12-01T05:39:45;5.10;99.90
59556;DHT22;45374;52.746;6.304;2022-12-01T05:42:11;5.20;99.90
59556;DHT22;45374;52.746;6.304;2022-12-01T05:44:36;5.10;99.90
59556;DHT22;45374;52.746;6.304;2022-12-01T05:47:01;5.10;99.90
59556;DHT22;45374;52.746;6.304;2022-12-01T05:49:27;5.10;99.90
59556;DHT22;45374;52.746;6.304;2022-12-01T05:51:52;5.10;99.90
59556;DHT22;45374;52.746;6.304;2022-12-01T05:54:18;5.20;99.90
59556;DHT22;45374;52.746;6.304;2022-12-01T05:56:43;5.20;99.90
59556;DHT22;45374;52.746;6.304;2022-12-01T05:59:09;5.20;99.90
59556;DHT22;45374;52.746;6.304;2022-12-01T06:01:34;5.10;99.90
59556;DHT22;45374;52.746;6.304;2022-12-01T06:04:00;5.20;99.90
59556;DHT22;45374;52.746;6.304;2022-12-01T06:06:25;5.10;99.90
59556;DHT22;45374;52.746;6.304;2022-12-01T06:08:51;5.10;99.90
59556;DHT22;45374;52.746;6.304;2022-12-01T06:11:16;5.10;99.90
59556;DHT22;45374;52.746;6.304;2022-12-01T06:13:42;5.20;99.90
59556;DHT22;45374;52.746;6.304;2022-12-01T06:16:07;5.10;99.90
59556;DHT22;45374;52.746;6.304;2022-12-01T06:18:34;5.10;99.90
59556;DHT22;45374;52.746;6.304;2022-12-01T06:21:00;5.10;99.90
59556;DHT22;45374;52.746;6.304;2022-12-01T06:23:25;5.10;99.90
59556;DHT22;45374;52.746;6.304;2022-12-01T06:25:51;5.10;99.90
59556;DHT22;45374;52.746;6.304;2022-12-01T06:28:16;5.10;99.90
59556;DHT22;45374;52.746;6.304;2022-12-01T06:30:42;5.10;99.90
59556;DHT22;45374;52.746;6.304;2022-12-01T06:33:07;5.10;99.90
59556;DHT22;45374;52.746;6.304;2022-12-01T06:35:33;5.10;99.90
59556;DHT22;45374;52.746;6.304;2022-12-01T06:37:59;5.10;99.90
59556;DHT22;45374;52.746;6.304;2022-12-01T06:40:24;5.10;99.90
59556;DHT22;45374;52.746;6.304;2022-12-01T06:42:50;5.10;99.90
59556;DHT22;45374;52.746;6.304;2022-12-01T06:45:15;5.10;99.90
59556;DHT22;45374;52.746;6.304;2022-12-01T06:47:41;5.10;99.90
59556;DHT22;45374;52.746;6.304;2022-12-01T06:50:06;5.00;99.90
59556;DHT22;45374;52.746;6.304;2022-12-01T06:52:34;5.10;99.90
59556;DHT22;45374;52.746;6.304;2022-12-01T06:55:01;5.10;99.90
59556;DHT22;45374;52.746;6.304;2022-12-01T06:57:28;5.10;99.90
59556;DHT22;45374;52.746;6.304;2022-12-01T06:59:53;5.10;99.90
59556;DHT22;45374;52.746;6.304;2022-12-01T07:02:19;5.00;99.90
59556;DHT22;45374;52.746;6.304;2022-12-01T07:04:44;5.00;99.90
59556;DHT22;45374;52.746;6.304;2022-12-01T07:07:10;4.90;99.90
59556;DHT22;45374;52.746;6.304;2022-12-01T07:09:36;4.90;99.90
59556;DHT22;45374;52.746;6.304;2022-12-01T07:12:01;4.80;99.90
59556;DHT22;45374;52.746;6.304;2022-12-01T07:14:27;4.70;99.90
59556;DHT22;45374;52.746;6.304;2022-12-01T07:16:53;4.60;99.90
59556;DHT22;45374;52.746;6.304;2022-12-01T07:19:18;4.60;99.90
59556;DHT22;45374;52.746;6.304;2022-12-01T07:21:44;4.50;99.90
59556;DHT22;45374;52.746;6.304;2022-12-01T07:24:09;4.40;99.90
59556;DHT22;45374;52.746;6.304;2022-12-01T07:26:36;4.40;99.90
59556;DHT22;45374;52.746;6.304;2022-12-01T07:29:02;4.30;99.90
59556;DHT22;45374;52.746;6.304;2022-12-01T07:31:28;4.20;99.90
59556;DHT22;45374;52.746;6.304;2022-12-01T07:33:53;4.20;99.90
59556;DHT22;45374;52.746;6.304;2022-12-01T07:36:19;4.00;99.90
59556;DHT22;45374;52.746;6.304;2022-12-01T07:38:44;4.10;99.90
59556;DHT22;45374;52.746;6.304;2022-12-01T07:41:11;4.00;99.90
59556;DHT22;45374;52.746;6.304;2022-12-01T07:43:37;3.90;99.90
59556;DHT22;45374;52.746;6.304;2022-12-01T07:46:13;3.90;99.90
59556;DHT22;45374;52.746;6.304;2022-12-01T07:48:39;3.90;99.90
59556;DHT22;45374;52.746;6.304;2022-12-01T07:51:05;3.70;99.90
59556;DHT22;45374;52.746;6.304;2022-12-01T07:53:31;3.60;99.90
59556;DHT22;45374;52.746;6.304;2022-12-01T07:55:57;3.60;99.90
59556;DHT22;45374;52.746;6.304;2022-12-01T07:58:22;3.70;99.90
59556;DHT22;45374;52.746;6.304;2022-12-01T08:00:48;3.80;99.90
59556;DHT22;45374;52.746;6.304;2022-12-01T08:03:14;3.90;99.90
59556;DHT22;45374;52.746;6.304;2022-12-01T08:05:39;3.80;99.90
59556;DHT22;45374;52.746;6.304;2022-12-01T08:08:05;3.80;99.90
59556;DHT22;45374;52.746;6.304;2022-12-01T08:10:30;3.90;99.90
59556;DHT22;45374;52.746;6.304;2022-12-01T08:12:56;3.90;99.90
59556;DHT22;45374;52.746;6.304;2022-12-01T08:15:21;3.90;99.90
59556;DHT22;45374;52.746;6.304;2022-12-01T08:17:47;3.90;99.90
59556;DHT22;45374;52.746;6.304;2022-12-01T08:20:12;3.90;99.90
59556;DHT22;45374;52.746;6.304;2022-12-01T08:22:38;4.00;99.90
59556;DHT22;45374;52.746;6.304;2022-12-01T08:25:03;4.10;99.90
59556;DHT22;45374;52.746;6.304;2022-12-01T08:27:29;4.10;99.90
59556;DHT22;45374;52.746;6.304;2022-12-01T08:29:54;4.20;99.90
59556;DHT22;45374;52.746;6.304;2022-12-01T08:32:20;4.20;99.90
59556;DHT22;45374;52.746;6.304;2022-12-01T08:34:45;4.30;99.90
59556;DHT22;45374;52.746;6.304;2022-12-01T08:37:11;4.40;99.90
59556;DHT22;45374;52.746;6.304;2022-12-01T08:39:36;4.30;99.90
59556;DHT22;45374;52.746;6.304;2022-12-01T08:42:02;4.40;99.90
59556;DHT22;45374;52.746;6.304;2022-12-01T08:44:27;4.40;99.90
59556;DHT22;45374;52.746;6.304;2022-12-01T08:46:53;4.40;99.90
59556;DHT22;45374;52.746;6.304;2022-12-01T08:49:18;4.40;99.90
59556;DHT22;45374;52.746;6.304;2022-12-01T08:51:44;4.50;99.90
59556;DHT22;45374;52.746;6.304;2022-12-01T08:54:10;4.50;99.90
59556;DHT22;45374;52.746;6.304;2022-12-01T08:56:37;4.40;99.90
59556;DHT22;45374;52.746;6.304;2022-12-01T08:59:03;4.40;99.90
59556;DHT22;45374;52.746;6.304;2022-12-01T09:01:29;4.40;99.90
59556;DHT22;45374;52.746;6.304;2022-12-01T09:03:55;4.30;99.90
59556;DHT22;45374;52.746;6.304;2022-12-01T09:06:31;4.20;99.90
59556;DHT22;45374;52.746;6.304;2022-12-01T09:09:00;4.20;99.90
59556;DHT22;45374;52.746;6.304;2022-12-01T09:11:25;4.10;99.90
59556;DHT22;45374;52.746;6.304;2022-12-01T09:13:51;3.90;99.90
59556;DHT22;45374;52.746;6.304;2022-12-01T09:16:16;4.00;99.90
59556;DHT22;45374;52.746;6.304;2022-12-01T09:18:43;3.90;99.90
59556;DHT22;45374;52.746;6.304;2022-12-01T09:21:09;3.90;99.90
59556;DHT22;45374;52.746;6.304;2022-12-01T09:23:35;4.00;99.90
59556;DHT22;45374;52.746;6.304;2022-12-01T09:26:01;4.00;99.90
59556;DHT22;45374;52.746;6.304;2022-12-01T09:28:28;4.00;99.90
59556;DHT22;45374;52.746;6.304;2022-12-01T09:30:53;4.00;99.90
59556;DHT22;45374;52.746;6.304;2022-12-01T09:33:19;4.10;99.90
59556;DHT22;45374;52.746;6.304;2022-12-01T09:35:44;4.10;99.90
59556;DHT22;45374;52.746;6.304;2022-12-01T09:38:10;4.30;99.90
59556;DHT22;45374;52.746;6.304;2022-12-01T09:40:39;4.40;99.90
59556;DHT22;45374;52.746;6.304;2022-12-01T09:43:10;4.30;99.90
59556;DHT22;45374;52.746;6.304;2022-12-01T09:45:39;4.50;99.90
59556;DHT22;45374;52.746;6.304;2022-12-01T09:48:09;4.50;99.90
59556;DHT22;45374;52.746;6.304;2022-12-01T09:50:37;4.40;99.90
59556;DHT22;45374;52.746;6.304;2022-12-01T09:53:05;4.50;99.90
59556;DHT22;45374;52.746;6.304;2022-12-01T09:55:31;4.60;99.90
59556;DHT22;45374;52.746;6.304;2022-12-01T09:57:58;4.60;99.90
59556;DHT22;45374;52.746;6.304;2022-12-01T10:00:25;4.60;99.90
59556;DHT22;45374;52.746;6.304;2022-12-01T10:05:43;4.70;99.90
59556;DHT22;45374;52.746;6.304;2022-12-01T10:08:11;4.80;99.90
59556;DHT22;45374;52.746;6.304;2022-12-01T10:10:42;4.80;99.90
59556;DHT22;45374;52.746;6.304;2022-12-01T10:13:19;4.80;99.90
59556;DHT22;45374;52.746;6.304;2022-12-01T10:15:50;4.90;99.90
59556;DHT22;45374;52.746;6.304;2022-12-01T10:26:19;4.90;99.90
59556;DHT22;45374;52.746;6.304;2022-12-01T10:31:25;5.00;99.90
59556;DHT22;45374;52.746;6.304;2022-12-01T10:36:18;5.20;99.90
59556;DHT22;45374;52.746;6.304;2022-12-01T10:38:44;5.10;99.90
59556;DHT22;45374;52.746;6.304;2022-12-01T10:41:10;5.20;99.90
59556;DHT22;45374;52.746;6.304;2022-12-01T10:43:38;5.30;99.90
59556;DHT22;45374;52.746;6.304;2022-12-01T10:46:40;5.30;99.90
59556;DHT22;45374;52.746;6.304;2022-12-01T10:48:58;5.40;99.90
59556;DHT22;45374;52.746;6.304;2022-12-01T10:51:24;5.40;99.90
59556;DHT22;45374;52.746;6.304;2022-12-01T10:53:56;5.40;99.90
59556;DHT22;45374;52.746;6.304;2022-12-01T10:56:22;5.20;99.90
59556;DHT22;45374;52.746;6.304;2022-12-01T10:58:51;5.20;99.90
59556;DHT22;45374;52.746;6.304;2022-12-01T11:01:28;5.30;99.90
59556;DHT22;45374;52.746;6.304;2022-12-01T11:06:23;5.30;99.90
59556;DHT22;45374;52.746;6.304;2022-12-01T11:08:54;5.30;99.90
59556;DHT22;45374;52.746;6.304;2022-12-01T11:11:22;5.40;99.90
59556;DHT22;45374;52.746;6.304;2022-12-01T11:13:48;5.50;99.90
59556;DHT22;45374;52.746;6.304;2022-12-01T11:16:32;5.50;99.90
59556;DHT22;45374;52.746;6.304;2022-12-01T11:22:00;5.60;99.90
59556;DHT22;45374;52.746;6.304;2022-12-01T11:26:51;5.80;99.90
59556;DHT22;45374;52.746;6.304;2022-12-01T11:29:28;5.80;99.90
59556;DHT22;45374;52.746;6.304;2022-12-01T11:31:55;5.90;99.90
59556;DHT22;45374;52.746;6.304;2022-12-01T11:34:25;5.80;99.90
59556;DHT22;45374;52.746;6.304;2022-12-01T11:36:56;6.00;99.90
59556;DHT22;45374;52.746;6.304;2022-12-01T11:39:33;6.00;99.90
59556;DHT22;45374;52.746;6.304;2022-12-01T11:42:45;6.10;99.90
59556;DHT22;45374;52.746;6.304;2022-12-01T11:44:47;6.10;99.90
59556;DHT22;45374;52.746;6.304;2022-12-01T11:47:14;6.20;99.90
59556;DHT22;45374;52.746;6.304;2022-12-01T11:49:41;6.20;99.90
59556;DHT22;45374;52.746;6.304;2022-12-01T11:52:24;6.20;99.90
59556;DHT22;45374;52.746;6.304;2022-12-01T11:54:59;6.30;99.90
59556;DHT22;45374;52.746;6.304;2022-12-01T11:57:25;6.20;99.90
59556;DHT22;45374;52.746;6.304;2022-12-01T11:59:50;6.40;99.90
59556;DHT22;45374;52.746;6.304;2022-12-01T12:02:31;6.40;99.90
59556;DHT22;45374;52.746;6.304;2022-12-01T12:05:11;6.50;99.90
59556;DHT22;45374;52.746;6.304;2022-12-01T12:18:25;6.60;99.90
59556;DHT22;45374;52.746;6.304;2022-12-01T12:20:57;6.70;99.90
59556;DHT22;45374;52.746;6.304;2022-12-01T12:28:42;6.60;99.90
59556;DHT22;45374;52.746;6.304;2022-12-01T12:41:40;6.70;99.90
59556;DHT22;45374;52.746;6.304;2022-12-01T12:52:14;6.60;99.90
59556;DHT22;45374;52.746;6.304;2022-12-01T12:57:07;6.60;99.90
59556;DHT22;45374;52.746;6.304;2022-12-01T13:02:23;6.60;99.90
59556;DHT22;45374;52.746;6.304;2022-12-01T13:04:57;6.50;99.90
59556;DHT22;45374;52.746;6.304;2022-12-01T13:10:02;6.50;99.90
59556;DHT22;45374;52.746;6.304;2022-12-01T13:12:31;6.40;99.90
59556;DHT22;45374;52.746;6.304;2022-12-01T13:15:04;6.30;99.90
59556;DHT22;45374;52.746;6.304;2022-12-01T13:19:56;6.20;99.90
59556;DHT22;45374;52.746;6.304;2022-12-01T13:22:23;6.20;99.90
59556;DHT22;45374;52.746;6.304;2022-12-01T13:24:51;6.10;99.90
59556;DHT22;45374;52.746;6.304;2022-12-01T13:27:18;6.10;99.90
59556;DHT22;45374;52.746;6.304;2022-12-01T13:29:45;6.10;99.90
59556;DHT22;45374;52.746;6.304;2022-12-01T13:34:56;6.10;99.90
59556;DHT22;45374;52.746;6.304;2022-12-01T13:37:25;6.10;99.90
59556;DHT22;45374;52.746;6.304;2022-12-01T13:39:52;6.20;99.90
59556;DHT22;45374;52.746;6.304;2022-12-01T13:44:49;6.20;99.90
59556;DHT22;45374;52.746;6.304;2022-12-01T13:49:42;6.20;99.90
59556;DHT22;45374;52.746;6.304;2022-12-01T13:52:16;6.10;99.90
59556;DHT22;45374;52.746;6.304;2022-12-01T13:57:28;6.10;99.90
59556;DHT22;45374;52.746;6.304;2022-12-01T14:02:22;5.90;99.90
59556;DHT22;45374;52.746;6.304;2022-12-01T14:04:48;6.00;99.90
59556;DHT22;45374;52.746;6.304;2022-12-01T14:07:19;6.00;99.90
59556;DHT22;45374;52.746;6.304;2022-12-01T14:09:45;5.90;99.90
59556;DHT22;45374;52.746;6.304;2022-12-01T14:12:27;5.90;99.90
59556;DHT22;45374;52.746;6.304;2022-12-01T14:15:00;5.90;99.90
59556;DHT22;45374;52.746;6.304;2022-12-01T14:17:33;5.90;99.90
59556;DHT22;45374;52.746;6.304;2022-12-01T14:20:05;5.90;99.90
59556;DHT22;45374;52.746;6.304;2022-12-01T14:22:36;6.00;99.90
59556;DHT22;45374;52.746;6.304;2022-12-01T14:27:47;6.00;99.90
59556;DHT22;45374;52.746;6.304;2022-12-01T14:35:42;6.00;99.90
59556;DHT22;45374;52.746;6.304;2022-12-01T14:38:08;6.10;99.90
59556;DHT22;45374;52.746;6.304;2022-12-01T14:40:34;6.00;99.90
59556;DHT22;45374;52.746;6.304;2022-12-01T14:43:00;6.00;99.90
59556;DHT22;45374;52.746;6.304;2022-12-01T14:46:05;6.10;99.90
59556;DHT22;45374;52.746;6.304;2022-12-01T14:48:33;6.00;99.90
59556;DHT22;45374;52.746;6.304;2022-12-01T14:51:08;6.00;99.90
59556;DHT22;45374;52.746;6.304;2022-12-01T14:53:35;6.00;99.90
59556;DHT22;45374;52.746;6.304;2022-12-01T14:56:15;6.00;99.90
59556;DHT22;45374;52.746;6.304;2022-12-01T15:01:17;5.90;99.90
59556;DHT22;45374;52.746;6.304;2022-12-01T15:03:44;5.90;99.90
59556;DHT22;45374;52.746;6.304;2022-12-01T15:06:15;5.90;99.90
59556;DHT22;45374;52.746;6.304;2022-12-01T15:08:41;5.90;99.90
59556;DHT22;45374;52.746;6.304;2022-12-01T15:11:12;5.80;99.90
59556;DHT22;45374;52.746;6.304;2022-12-01T15:13:47;5.80;99.90
59556;DHT22;45374;52.746;6.304;2022-12-01T15:16:15;5.70;99.90
59556;DHT22;45374;52.746;6.304;2022-12-01T15:18:41;5.80;99.90
59556;DHT22;45374;52.746;6.304;2022-12-01T15:21:09;5.70;99.90
59556;DHT22;45374;52.746;6.304;2022-12-01T15:23:35;5.70;99.90
59556;DHT22;45374;52.746;6.304;2022-12-01T15:26:00;5.80;99.90
59556;DHT22;45374;52.746;6.304;2022-12-01T15:28:33;5.70;99.90
59556;DHT22;45374;52.746;6.304;2022-12-01T15:30:59;5.70;99.90
59556;DHT22;45374;52.746;6.304;2022-12-01T15:33:27;5.70;99.90
59556;DHT22;45374;52.746;6.304;2022-12-01T15:35:53;5.70;99.90
59556;DHT22;45374;52.746;6.304;2022-12-01T15:38:24;5.70;99.90
59556;DHT22;45374;52.746;6.304;2022-12-01T15:40:50;5.60;99.90
59556;DHT22;45374;52.746;6.304;2022-12-01T15:43:18;5.60;99.90
59556;DHT22;45374;52.746;6.304;2022-12-01T15:45:48;5.60;99.90
59556;DHT22;45374;52.746;6.304;2022-12-01T15:48:15;5.60;99.90
59556;DHT22;45374;52.746;6.304;2022-12-01T15:50:41;5.60;99.90
59556;DHT22;45374;52.746;6.304;2022-12-01T15:55:45;5.60;99.90
59556;DHT22;45374;52.746;6.304;2022-12-01T15:58:15;5.60;99.90
59556;DHT22;45374;52.746;6.304;2022-12-01T16:00:51;5.60;99.90
59556;DHT22;45374;52.746;6.304;2022-12-01T16:03:18;5.50;99.90
59556;DHT22;45374;52.746;6.304;2022-12-01T16:05:43;5.60;99.90
59556;DHT22;45374;52.746;6.304;2022-12-01T16:08:19;5.50;99.90
59556;DHT22;45374;52.746;6.304;2022-12-01T16:10:45;5.50;99.90
59556;DHT22;45374;52.746;6.304;2022-12-01T16:21:48;5.50;99.90
59556;DHT22;45374;52.746;6.304;2022-12-01T16:26:50;5.50;99.90
59556;DHT22;45374;52.746;6.304;2022-12-01T16:29:19;5.40;99.90
59556;DHT22;45374;52.746;6.304;2022-12-01T16:31:46;5.40;99.90
59556;DHT22;45374;52.746;6.304;2022-12-01T16:34:13;5.40;99.90
59556;DHT22;45374;52.746;6.304;2022-12-01T16:36:39;5.40;99.90
59556;DHT22;45374;52.746;6.304;2022-12-01T16:39:05;5.30;99.90
59556;DHT22;45374;52.746;6.304;2022-12-01T16:41:31;5.40;99.90
59556;DHT22;45374;52.746;6.304;2022-12-01T16:43:57;5.30;99.90
59556;DHT22;45374;52.746;6.304;2022-12-01T16:46:22;5.30;99.90
59556;DHT22;45374;52.746;6.304;2022-12-01T16:48:48;5.30;99.90
59556;DHT22;45374;52.746;6.304;2022-12-01T16:51:14;5.30;99.90
59556;DHT22;45374;52.746;6.304;2022-12-01T16:53:40;5.30;99.90
59556;DHT22;45374;52.746;6.304;2022-12-01T16:56:08;5.30;99.90
59556;DHT22;45374;52.746;6.304;2022-12-01T16:58:36;5.30;99.90
59556;DHT22;45374;52.746;6.304;2022-12-01T17:01:03;5.30;99.90
59556;DHT22;45374;52.746;6.304;2022-12-01T17:03:28;5.30;99.90
59556;DHT22;45374;52.746;6.304;2022-12-01T17:05:54;5.30;99.90
59556;DHT22;45374;52.746;6.304;2022-12-01T17:08:20;5.30;99.90
59556;DHT22;45374;52.746;6.304;2022-12-01T17:10:46;5.30;99.90
59556;DHT22;45374;52.746;6.304;2022-12-01T17:13:13;5.30;99.90
59556;DHT22;45374;52.746;6.304;2022-12-01T17:15:40;5.30;99.90
59556;DHT22;45374;52.746;6.304;2022-12-01T17:18:05;5.30;99.90
59556;DHT22;45374;52.746;6.304;2022-12-01T17:20:31;5.40;99.90
59556;DHT22;45374;52.746;6.304;2022-12-01T17:22:56;5.30;99.90
59556;DHT22;45374;52.746;6.304;2022-12-01T17:25:23;5.30;99.90
59556;DHT22;45374;52.746;6.304;2022-12-01T17:27:49;5.30;99.90
59556;DHT22;45374;52.746;6.304;2022-12-01T17:30:15;5.40;99.90
59556;DHT22;45374;52.746;6.304;2022-12-01T17:32:40;5.30;99.90
59556;DHT22;45374;52.746;6.304;2022-12-01T17:35:06;5.40;99.90
59556;DHT22;45374;52.746;6.304;2022-12-01T17:37:32;5.40;99.90
59556;DHT22;45374;52.746;6.304;2022-12-01T17:39:57;5.30;99.90
59556;DHT22;45374;52.746;6.304;2022-12-01T17:42:23;5.40;99.90
59556;DHT22;45374;52.746;6.304;2022-12-01T17:44:48;5.30;99.90
59556;DHT22;45374;52.746;6.304;2022-12-01T17:47:14;5.30;99.90
59556;DHT22;45374;52.746;6.304;2022-12-01T17:49:39;5.30;99.90
59556;DHT22;45374;52.746;6.304;2022-12-01T17:52:05;5.40;99.90
59556;DHT22;45374;52.746;6.304;2022-12-01T17:54:31;5.30;99.90
59556;DHT22;45374;52.746;6.304;2022-12-01T17:56:56;5.30;99.90
59556;DHT22;45374;52.746;6.304;2022-12-01T17:59:22;5.30;99.90
59556;DHT22;45374;52.746;6.304;2022-12-01T18:01:48;5.40;99.90
59556;DHT22;45374;52.746;6.304;2022-12-01T18:04:14;5.40;99.90
59556;DHT22;45374;52.746;6.304;2022-12-01T18:06:39;5.30;99.90
59556;DHT22;45374;52.746;6.304;2022-12-01T18:09:05;5.30;99.90
59556;DHT22;45374;52.746;6.304;2022-12-01T18:11:30;5.20;99.90
59556;DHT22;45374;52.746;6.304;2022-12-01T18:13:56;5.30;99.90